Impacts TAF Board
For situational awareness. Not to be used for flight planning purposes.
IDs:

KLAX - Los Angeles Intl, CA, US

Issued at 1744 UTC 12 Dec 2018
Updated at 1830 UTC 12 Dec 2018
Potential Impact None Slight Moderate High
Time<<13/07Z 13/08Z 13/09Z 13/10Z 13/11Z 13/12Z 13/13Z 13/14Z 13/15Z 13/16Z 13/17Z 13/18Z 13/19Z>>
Type PRVL PRVL PRVL PRVL PRVL PRVL PRVL PRVL PRVL PRVL PRVL PRVL PRVL
VIS >6 >6 >6 >6 >6 >6 >6 >6 >6 >6 >6 >6 >6
CIG 250 250 250 250 250 250 250 250 250 -- -- -- --
Cover BKN BKN BKN BKN BKN BKN BKN BKN BKN SCT SCT SCT SCT
FltCat VFR VFR VFR VFR VFR VFR VFR VFR VFR VFR VFR VFR VFR
WX -- -- -- -- -- -- -- -- -- -- -- -- --
WDir VRB VRB VRB VRB VRB VRB VRB VRB 60 80 80 80 80
WSpd 3 3 3 3 3 3 3 3 5 5 5 5 5
WGst -- -- -- -- -- -- -- -- -- -- -- -- --
Raw TAF
KLAX 121744Z 1218/1324 05007KT 5SM BR BKN014
  FM122000 25010KT P6SM SCT250
  FM130300 25005KT P6SM SCT250
  FM130700 VRB03KT P6SM BKN250
  FM131500 06005KT P6SM BKN250
  FM131600 08005KT P6SM SCT250
  FM132000 26007KT P6SM SCT250


METAR Board
Radar Display
Forecast Discussion
For situational awareness. Not to be used for flight planning purposes.